Round Hill, Nevada
Current Conditions -  °F | °C
As of 10:53 PM on Sunday 23 Nov 2014 (Local Time) from KTVL Reporting Station
Clear Clear  
Wind Chill: 28°   Ceiling: Unl
Heat Index: 28°   Visibility: 10mi
Dew Point: 22°   Wind: 3mph
Humidity: 78%   Direction: 210°SSW
Pressure: 30.34"   Gusts: NA
Location:  39.0164°N, 119.925°W
Report Text: KTVL 240653Z AUTO 21003KT 10SM CLR M02/M06 A3034 RMK AO2 SLP278 T10221056
Loading
Personal Weather Stations






























Interactive Weather Map New forecast layout! Learn more

10-Day Weather Forecast

Advertisements
Track Severe Weather on mobile